< < Back
Terminal Aerodrome Forecast


Current Version              Previous Versions:   1  2  3  4  5  6  7  8  9  

Terminal Aerodrome Forecast

748
FTUS42 KGSP 231124
TAFAVL
TAF
KAVL 231124Z 2312/2412 00000KT P6SM FEW250
     FM231400 16006KT P6SM FEW250
     FM240200 00000KT P6SM FEW250=

Latest METAR

086
SAUS70 KWBC 231600 RRM
MTRAVL
METAR KAVL 231554Z 00000KT 10SM CLR 21/04 A3046 RMK AO2 SLP299 T02110044
$


USA.gov is the U.S. government's official web portal to all federal, state and local government web resources and services.